| time (UTC) | temp C | wind direction | speed KPH | gust KPH | rain 1hr cm | rain 24hr cm | rain mn cm | humidity % | barometer mb |
| 20260508014542 | 16 | 334 | 0.0 | 0.0 | 0.00 | 0.03 | 0.00 | 64 | 1011.7 |
| 20260508013053 | 16 | 334 | 0.0 | 0.0 | 0.00 | 0.03 | 0.00 | 63 | 1011.7 |
| 20260508011606 | 16 | 334 | 0.0 | 3.2 | 0.00 | 0.03 | 0.00 | 64 | 1011.7 |
| 20260508010044 | 17 | 334 | 0.0 | 6.4 | 0.00 | 0.03 | 0.00 | 62 | 1011.8 |
| 20260508004520 | 22 | 334 | 0.0 | 0.0 | 0.00 | 0.03 | 0.00 | 42 | 1011.8 |
| 20260508003058 | 22 | 334 | 0.0 | 6.4 | 0.00 | 0.03 | 0.00 | 41 | 1011.9 |
| 20260508001533 | 22 | 334 | 3.2 | 11.3 | 0.00 | 0.03 | 0.00 | 42 | 1011.9 |
| 20260508000045 | 22 | 334 | 0.0 | 8.0 | 0.00 | 0.03 | 0.00 | 45 | 1012.1 |
| 20260507234614 | 21 | 334 | 6.4 | 12.9 | 0.00 | 0.03 | 0.00 | 46 | 1012.1 |
| 20260507233032 | 20 | 333 | 4.8 | 12.9 | 0.00 | 0.03 | 0.00 | 46 | 1012.2 |
| 20260507231606 | 20 | 333 | 0.0 | 14.5 | 0.00 | 0.03 | 0.00 | 48 | 1012.3 |
| 20260507230017 | 20 | 328 | 8.0 | 17.7 | 0.00 | 0.03 | 0.00 | 49 | 1012.3 |
| 20260507224537 | 21 | 334 | 11.3 | 20.9 | 0.00 | 0.03 | 0.00 | 44 | 1012.3 |
| 20260507223055 | 22 | 14 | 0.0 | 6.4 | 0.00 | 0.03 | 0.00 | 45 | 1012.3 |
| 20260507221614 | 20 | 14 | 0.0 | 9.7 | 0.00 | 0.03 | 0.00 | 50 | 1012.4 |
| 20260507220112 | 21 | 343 | 1.6 | 6.4 | 0.00 | 0.03 | 0.00 | 45 | 1012.5 |
| 20260507214522 | 22 | 341 | 0.0 | 4.8 | 0.00 | 0.03 | 0.00 | 44 | 1012.8 |
| 20260507213042 | 21 | 341 | 0.0 | 6.4 | 0.00 | 0.03 | 0.00 | 47 | 1012.9 |
| 20260507211524 | 21 | 341 | 0.0 | 3.2 | 0.00 | 0.03 | 0.00 | 49 | 1013.2 |
| 20260507210040 | 21 | 341 | 0.0 | 6.4 | 0.00 | 0.03 | 0.00 | 49 | 1013.3 |
| 20260507204508 | 21 | 339 | 0.0 | 6.4 | 0.00 | 0.03 | 0.00 | 46 | 1013.5 |
| 20260507203151 | 21 | 323 | 0.0 | 3.2 | 0.00 | 0.03 | 0.00 | 47 | 1013.7 |
| 20260507201526 | 21 | 318 | 0.0 | 3.2 | 0.00 | 0.03 | 0.00 | 47 | 1013.9 |
| 20260507200104 | 20 | 317 | 0.0 | 3.2 | 0.00 | 0.03 | 0.00 | 51 | 1014.1 |
| 20260507194623 | 19 | 315 | 0.0 | 3.2 | 0.00 | 0.03 | 0.00 | 55 | 1014.1 |
| 20260507193050 | 19 | 315 | 0.0 | 1.6 | 0.00 | 0.03 | 0.00 | 59 | 1014.2 |
| 20260507191518 | 17 | 314 | 0.0 | 0.0 | 0.00 | 0.03 | 0.00 | 62 | 1014.5 |
| 20260507190037 | 16 | 315 | 0.0 | 0.0 | 0.00 | 0.03 | 0.00 | 65 | 1014.7 |
| 20260507184603 | 16 | 314 | 0.0 | 0.0 | 0.00 | 0.03 | 0.00 | 66 | 1014.9 |
| 20260507183013 | 15 | 315 | 0.0 | 0.0 | 0.00 | 0.03 | 0.00 | 68 | 1014.8 |
| 20260507181532 | 15 | 315 | 0.0 | 1.6 | 0.00 | 0.03 | 0.00 | 69 | 1014.8 |
| 20260507180117 | 14 | 315 | 0.0 | 1.6 | 0.00 | 0.03 | 0.00 | 69 | 1014.9 |
| 20260507174535 | 14 | 315 | 0.0 | 0.0 | 0.00 | 0.03 | 0.00 | 69 | 1015.0 |
| 20260507173017 | 13 | 315 | 0.0 | 3.2 | 0.00 | 0.03 | 0.00 | 70 | 1014.9 |
| 20260507171555 | 13 | 315 | 1.6 | 8.0 | 0.00 | 0.03 | 0.00 | 70 | 1015.2 |
| 20260507170025 | 13 | 278 | 0.0 | 6.4 | 0.00 | 0.03 | 0.00 | 70 | 1015.2 |
| 20260507164548 | 13 | 272 | 0.0 | 3.2 | 0.00 | 0.03 | 0.00 | 70 | 1015.4 |
| 20260507163114 | 13 | 272 | 0.0 | 0.0 | 0.00 | 0.03 | 0.00 | 70 | 1015.3 |
| 20260507161531 | 13 | 272 | 0.0 | 0.0 | 0.00 | 0.03 | 0.00 | 70 | 1015.2 |
| 20260507160100 | 12 | 272 | 0.0 | 0.0 | 0.00 | 0.03 | 0.00 | 69 | 1015.2 |
| 20260507154601 | 13 | 272 | 0.0 | 0.0 | 0.00 | 0.03 | 0.00 | 70 | 1014.9 |
| 20260507153013 | 12 | 272 | 0.0 | 0.0 | 0.00 | 0.03 | 0.00 | 70 | 1014.9 |
| 20260507151546 | 12 | 272 | 0.0 | 0.0 | 0.00 | 0.03 | 0.00 | 70 | 1014.9 |
| 20260507150013 | 13 | 272 | 0.0 | 0.0 | 0.00 | 0.03 | 0.00 | 69 | 1014.8 |
| 20260507144537 | 13 | 272 | 0.0 | 0.0 | 0.00 | 0.03 | 0.00 | 69 | 1014.7 |
| 20260507143011 | 12 | 272 | 0.0 | 1.6 | 0.00 | 0.03 | 0.00 | 69 | 1014.6 |
| 20260507141512 | 11 | 272 | 0.0 | 0.0 | 0.00 | 0.03 | 0.00 | 65 | 1014.4 |
| 20260507140031 | 10 | 272 | 0.0 | 0.0 | 0.00 | 0.03 | 0.00 | 65 | 1014.4 |
| 20260507134616 | 10 | 272 | 0.0 | 0.0 | 0.00 | 0.03 | 0.00 | 66 | 1014.4 |
| 20260507133035 | 10 | 272 | 0.0 | 0.0 | 0.00 | 0.03 | 0.00 | 67 | 1014.2 |
| 20260507131547 | 10 | 272 | 0.0 | 0.0 | 0.00 | 0.03 | 0.00 | 67 | 1014.0 |
| 20260507130050 | 10 | 272 | 0.0 | 0.0 | 0.00 | 0.03 | 0.00 | 65 | 1014.0 |
| 20260507124525 | 10 | 272 | 0.0 | 4.8 | 0.00 | 0.03 | 0.00 | 66 | 1013.9 |
| 20260507123042 | 9 | 272 | 3.2 | 11.3 | 0.00 | 0.03 | 0.00 | 67 | 1013.7 |
| 20260507121507 | 8 | 259 | 0.0 | 0.0 | 0.00 | 0.03 | 0.00 | 70 | 1013.5 |
| 20260507120038 | 7 | 259 | 0.0 | 4.8 | 0.00 | 0.03 | 0.00 | 72 | 1013.3 |
| 20260507114546 | 8 | 259 | 6.4 | 9.7 | 0.00 | 0.03 | 0.00 | 72 | 1013.3 |
| 20260507113042 | 8 | 259 | 3.2 | 11.3 | 0.00 | 0.03 | 0.00 | 72 | 1013.3 |
| 20260507111510 | 9 | 261 | 6.4 | 14.5 | 0.00 | 0.03 | 0.00 | 73 | 1013.4 |
| 20260507110036 | 9 | 272 | 9.7 | 14.5 | 0.00 | 0.03 | 0.00 | 73 | 1013.5 |
| 20260507104526 | 10 | 346 | 1.6 | 6.4 | 0.00 | 0.03 | 0.00 | 73 | 1013.4 |
| 20260507103056 | 11 | 37 | 0.0 | 4.8 | 0.00 | 0.03 | 0.00 | 73 | 1013.5 |
| 20260507101549 | 12 | 37 | 0.0 | 9.7 | 0.00 | 0.03 | 0.00 | 72 | 1013.8 |
| 20260507100046 | 12 | 349 | 0.0 | 3.2 | 0.00 | 0.03 | 0.00 | 73 | 1014.1 |
| 20260507094525 | 12 | 344 | 0.0 | 4.8 | 0.00 | 0.03 | 0.00 | 73 | 1014.0 |
| 20260507093113 | 12 | 327 | 6.4 | 12.9 | 0.00 | 0.03 | 0.00 | 72 | 1014.0 |
| 20260507091553 | 12 | 36 | 1.6 | 9.7 | 0.00 | 0.03 | 0.00 | 70 | 1013.8 |
| 20260507090112 | 13 | 5 | 3.2 | 8.0 | 0.00 | 0.03 | 0.00 | 68 | 1013.3 |
| 20260507084526 | 13 | 51 | 0.0 | 8.0 | 0.00 | 0.03 | 0.00 | 65 | 1013.3 |
| 20260507083107 | 13 | 323 | 1.6 | 14.5 | 0.00 | 0.03 | 0.00 | 67 | 1013.5 |
| 20260507081531 | 13 | 121 | 3.2 | 6.4 | 0.00 | 0.03 | 0.00 | 70 | 1013.3 |
| 20260507080037 | 13 | 121 | 0.0 | 6.4 | 0.00 | 0.03 | 0.03 | 68 | 1013.1 |
| 20260507074559 | 13 | 121 | 1.6 | 14.5 | 0.00 | 0.03 | 0.03 | 68 | 1013.3 |
| 20260507073030 | 13 | 87 | 1.6 | 11.3 | 0.03 | 0.03 | 0.03 | 68 | 1013.1 |
| 20260507071602 | 13 | 114 | 12.9 | 19.3 | 0.03 | 0.03 | 0.03 | 69 | 1013.4 |
| 20260507070015 | 13 | 311 | 12.9 | 29.0 | 0.03 | 0.03 | 0.03 | 68 | 1013.0 |
| 20260507064527 | 13 | 292 | 11.3 | 19.3 | 0.00 | 0.00 | 0.00 | 69 | 1013.5 |
| 20260507061537 | 13 | 329 | 0.0 | 11.3 | 0.00 | 0.00 | 0.00 | 65 | 1013.1 |
| 20260507060114 | 14 | 12 | 6.4 | 20.9 | 0.00 | 0.00 | 0.00 | 62 | 1013.0 |
| 20260507054532 | 15 | 312 | 14.5 | 29.0 | 0.00 | 0.00 | 0.00 | 59 | 1013.2 |
| 20260507053002 | 15 | 161 | 0.0 | 8.0 | 0.00 | 0.00 | 0.00 | 62 | 1012.7 |
| 20260507051551 | 15 | 161 | 1.6 | 9.7 | 0.00 | 0.00 | 0.00 | 61 | 1012.6 |
| 20260507050139 | 14 | 161 | 0.0 | 0.0 | 0.00 | 0.00 | 0.00 | 65 | 1012.5 |
| 20260507044534 | 13 | 161 | 0.0 | 3.2 | 0.00 | 0.00 | 0.00 | 66 | 1012.5 |
| 20260507043047 | 13 | 158 | 0.0 | 0.0 | 0.00 | 0.00 | 0.00 | 68 | 1012.5 |
| 20260507041510 | 12 | 153 | 0.0 | 0.0 | 0.00 | 0.00 | 0.00 | 71 | 1012.7 |
| 20260507040041 | 13 | 153 | 0.0 | 0.0 | 0.00 | 0.00 | 0.00 | 71 | 1012.6 |
| 20260507034511 | 13 | 153 | 0.0 | 0.0 | 0.00 | 0.00 | 0.00 | 71 | 1012.5 |
| 20260507033036 | 13 | 153 | 0.0 | 0.0 | 0.00 | 0.00 | 0.00 | 71 | 1012.2 |
| 20260507031532 | 13 | 153 | 1.6 | 6.4 | 0.00 | 0.00 | 0.00 | 71 | 1012.1 |
| 20260507030116 | 14 | 153 | 1.6 | 6.4 | 0.00 | 0.00 | 0.00 | 70 | 1011.9 |
| 20260507024508 | 15 | 153 | 0.0 | 0.0 | 0.00 | 0.00 | 0.00 | 66 | 1012.0 |
| 20260507023030 | 16 | 153 | 0.0 | 0.0 | 0.00 | 0.00 | 0.00 | 60 | 1012.0 |
| 20260507021539 | 17 | 153 | 0.0 | 0.0 | 0.00 | 0.00 | 0.00 | 62 | 1012.0 |
| 20260507020020 | 17 | 153 | 0.0 | 0.0 | 0.00 | 0.00 | 0.00 | 57 | 1011.9 |